createdAt,value
2019-05-25T00:01:34.266Z,74.94
2019-05-25T00:04:02.979Z,75.24
2019-05-25T00:06:31.552Z,75.24
2019-05-25T00:09:00.229Z,75.04
2019-05-25T00:11:28.865Z,75.06
2019-05-25T00:13:57.433Z,74.97
2019-05-25T00:16:25.959Z,75.09
2019-05-25T00:18:54.599Z,75.04
2019-05-25T00:21:23.161Z,74.62
2019-05-25T00:23:51.851Z,74.53
2019-05-25T00:26:20.420Z,74.74
2019-05-25T00:28:48.915Z,74.98
2019-05-25T00:31:17.598Z,74.95
2019-05-25T00:33:46.155Z,75.13
2019-05-25T00:36:14.816Z,75.09
2019-05-25T00:38:43.320Z,74.95
2019-05-25T00:41:11.822Z,74.51
2019-05-25T00:43:40.456Z,74.40
2019-05-25T00:46:09.272Z,73.89
2019-05-25T00:48:37.774Z,74.19
2019-05-25T00:51:06.367Z,74.34
2019-05-25T00:53:35.029Z,73.52
2019-05-25T00:56:03.796Z,73.52
2019-05-25T00:58:32.363Z,73.53
2019-05-25T01:01:01.040Z,73.41
2019-05-25T01:03:29.588Z,73.56
2019-05-25T01:05:58.148Z,73.64
2019-05-25T01:08:26.823Z,73.54
2019-05-25T01:10:55.520Z,73.60
2019-05-25T01:13:24.012Z,73.54
2019-05-25T01:15:52.620Z,73.56
2019-05-25T01:18:21.252Z,73.34
2019-05-25T01:20:49.878Z,73.67
2019-05-25T01:23:18.424Z,73.79
2019-05-25T01:25:47.053Z,73.76
2019-05-25T01:28:15.683Z,74.00
2019-05-25T01:30:44.350Z,74.17
2019-05-25T01:33:12.861Z,74.74
2019-05-25T01:35:41.579Z,75.00
2019-05-25T01:38:10.267Z,75.51
2019-05-25T01:40:38.836Z,75.47
2019-05-25T01:43:07.474Z,76.10
2019-05-25T01:45:36.117Z,76.07
2019-05-25T01:48:04.849Z,76.22
2019-05-25T01:50:33.416Z,76.09
2019-05-25T01:53:02.269Z,75.82
2019-05-25T01:55:30.829Z,75.83
2019-05-25T01:57:59.951Z,75.80
2019-05-25T02:00:28.729Z,75.44
2019-05-25T02:02:57.363Z,75.85
2019-05-25T02:05:25.997Z,76.01
2019-05-25T02:07:54.521Z,75.65
2019-05-25T02:10:23.097Z,75.89
2019-05-25T02:12:51.708Z,76.20
2019-05-25T02:15:20.377Z,76.20
2019-05-25T02:17:48.878Z,76.42
2019-05-25T02:20:17.613Z,76.65
2019-05-25T02:22:46.119Z,76.79
2019-05-25T02:25:18.296Z,76.65
2019-05-25T02:27:46.026Z,76.87
2019-05-25T02:30:15.263Z,76.63
2019-05-25T02:32:43.823Z,76.66
2019-05-25T02:35:15.393Z,76.02
2019-05-25T02:37:44.027Z,75.59
2019-05-25T02:40:12.857Z,75.80
2019-05-25T02:42:41.453Z,75.64
2019-05-25T02:45:10.086Z,75.20
2019-05-25T02:47:38.727Z,75.04
2019-05-25T02:50:10.537Z,74.74
2019-05-25T02:52:39.171Z,73.81
2019-05-25T02:55:10.442Z,73.90
2019-05-25T02:57:39.045Z,73.38
2019-05-25T03:00:08.608Z,73.84
2019-05-25T03:02:37.396Z,74.01
2019-05-25T03:05:09.955Z,74.22
2019-05-25T03:07:40.287Z,73.88
2019-05-25T03:10:09.332Z,73.51
2019-05-25T03:12:38.805Z,73.50
2019-05-25T03:15:10.712Z,73.07
2019-05-25T03:17:39.275Z,72.82
2019-05-25T03:20:07.948Z,73.30
2019-05-25T03:22:36.588Z,72.86
2019-05-25T03:25:07.201Z,73.21
2019-05-25T03:27:35.880Z,73.74
2019-05-25T03:30:06.212Z,74.70
2019-05-25T03:32:34.858Z,75.40
2019-05-25T03:35:04.520Z,75.65
2019-05-25T03:37:33.107Z,75.34
2019-05-25T03:40:01.772Z,75.74
2019-05-25T03:42:30.372Z,75.37
2019-05-25T03:44:58.935Z,75.00
2019-05-25T03:47:27.576Z,73.92
2019-05-25T03:49:56.188Z,73.97
2019-05-25T03:52:24.746Z,72.90
2019-05-25T03:54:53.398Z,72.47
2019-05-25T03:57:22.051Z,72.14
2019-05-25T03:59:50.683Z,72.18
2019-05-25T04:02:19.248Z,71.31
2019-05-25T04:04:47.771Z,70.69
2019-05-25T04:07:16.399Z,69.85
2019-05-25T04:09:45.029Z,69.04
2019-05-25T04:12:13.565Z,69.68
2019-05-25T04:14:42.054Z,69.46
2019-05-25T04:17:10.684Z,69.24
2019-05-25T04:19:39.348Z,68.64
2019-05-25T04:22:07.858Z,68.26
2019-05-25T04:24:36.403Z,67.80
2019-05-25T04:27:05.091Z,67.18
2019-05-25T04:29:33.716Z,66.46
2019-05-25T04:32:02.282Z,65.94
2019-05-25T04:34:30.780Z,65.05
2019-05-25T04:36:59.417Z,61.62
2019-05-25T04:39:28.212Z,61.58
2019-05-25T04:41:56.788Z,61.34
2019-05-25T04:44:25.422Z,59.86
2019-05-25T04:46:53.937Z,59.46
2019-05-25T04:49:22.577Z,56.12
2019-05-25T04:51:51.160Z,50.36
2019-05-25T04:54:19.739Z,45.84
2019-05-25T04:56:48.514Z,43.84
2019-05-25T04:59:16.960Z,42.25
2019-05-25T05:01:45.642Z,41.14
2019-05-25T05:04:14.325Z,41.14
2019-05-25T05:06:43.100Z,41.26
2019-05-25T05:09:11.732Z,41.26
2019-05-25T05:11:40.370Z,39.63
2019-05-25T05:14:08.992Z,37.77
2019-05-25T05:16:37.583Z,37.78
2019-05-25T05:19:06.210Z,38.32
2019-05-25T05:21:34.861Z,40.28
2019-05-25T05:24:03.524Z,40.28
2019-05-25T05:26:32.081Z,45.93
2019-05-25T05:29:00.648Z,45.99
2019-05-25T05:31:29.320Z,46.70
2019-05-25T05:33:57.955Z,46.12
2019-05-25T05:36:27.660Z,44.36
2019-05-25T05:38:57.242Z,40.30
2019-05-25T05:41:26.780Z,40.60
2019-05-25T05:43:57.087Z,42.25
2019-05-25T05:46:27.831Z,40.12
2019-05-25T05:48:57.273Z,40.12
2019-05-25T05:51:27.502Z,40.56
2019-05-25T05:53:56.265Z,41.77
2019-05-25T05:56:24.952Z,43.37
2019-05-25T05:58:53.591Z,42.00
2019-05-25T06:01:22.190Z,40.42
2019-05-25T06:03:50.685Z,40.57
2019-05-25T06:06:19.332Z,41.09
2019-05-25T06:08:48.004Z,41.86
2019-05-25T06:11:16.611Z,40.59
2019-05-25T06:13:45.184Z,42.79
2019-05-25T06:16:13.918Z,44.43
2019-05-25T06:18:42.601Z,45.91
2019-05-25T06:21:11.247Z,42.16
2019-05-25T06:23:39.915Z,42.16
2019-05-25T06:26:08.547Z,42.04
2019-05-25T06:28:37.035Z,43.44
2019-05-25T06:31:05.709Z,45.57
2019-05-25T06:33:34.409Z,46.18
2019-05-25T06:36:02.964Z,48.43
2019-05-25T06:38:31.580Z,47.66
2019-05-25T06:41:00.206Z,48.90
2019-05-25T06:43:28.907Z,50.29
2019-05-25T06:45:57.455Z,49.71
2019-05-25T06:48:26.006Z,47.95
2019-05-25T06:50:54.642Z,43.79
2019-05-25T06:53:23.319Z,42.87
2019-05-25T06:55:51.839Z,42.75
2019-05-25T06:58:20.500Z,42.66
2019-05-25T07:00:49.128Z,41.33
2019-05-25T07:03:17.712Z,43.24
2019-05-25T07:05:46.360Z,44.92
2019-05-25T07:08:15.029Z,46.71
2019-05-25T07:10:43.653Z,45.38
2019-05-25T07:13:12.204Z,45.02
2019-05-25T07:15:40.875Z,43.12
2019-05-25T07:18:09.512Z,44.25
2019-05-25T07:20:38.079Z,44.37
2019-05-25T07:23:06.699Z,45.87
2019-05-25T07:25:35.332Z,46.40
2019-05-25T07:28:03.978Z,46.01
2019-05-25T07:30:32.584Z,44.36
2019-05-25T07:33:01.093Z,42.39
2019-05-25T07:35:29.791Z,45.94
2019-05-25T07:37:58.456Z,46.18
2019-05-25T07:40:27.086Z,48.34
2019-05-25T07:42:55.723Z,51.73
2019-05-25T07:45:24.331Z,52.55
2019-05-25T07:47:52.913Z,53.74
2019-05-25T07:50:21.663Z,50.35
2019-05-25T07:52:50.340Z,46.48
2019-05-25T07:55:19.040Z,42.72
2019-05-25T07:57:47.693Z,40.67
2019-05-25T08:00:16.548Z,38.72
2019-05-25T08:02:45.220Z,41.24
2019-05-25T08:05:14.130Z,43.31
2019-05-25T08:07:42.634Z,44.91
2019-05-25T08:10:13.570Z,41.99
2019-05-25T08:12:42.229Z,41.77
2019-05-25T08:15:11.055Z,39.88
2019-05-25T08:17:39.685Z,37.97
2019-05-25T08:20:08.552Z,36.94
2019-05-25T08:22:37.119Z,37.37
2019-05-25T08:25:07.450Z,37.78
2019-05-25T08:27:36.109Z,37.48
2019-05-25T08:30:06.930Z,39.84
2019-05-25T08:32:35.480Z,42.27
2019-05-25T08:35:05.649Z,44.38
2019-05-25T08:37:34.279Z,45.00
2019-05-25T08:40:02.922Z,45.99
2019-05-25T08:42:31.570Z,47.72
2019-05-25T08:45:00.842Z,46.00
2019-05-25T08:47:29.527Z,46.20
2019-05-25T08:49:58.087Z,47.13
2019-05-25T08:52:26.665Z,48.12
2019-05-25T08:54:56.668Z,48.66
2019-05-25T08:57:25.447Z,49.18
2019-05-25T08:59:54.192Z,48.36
2019-05-25T09:02:22.822Z,46.99
2019-05-25T09:04:51.308Z,46.19
2019-05-25T09:07:19.843Z,44.86
2019-05-25T09:09:48.518Z,44.50
2019-05-25T09:12:17.085Z,45.22
2019-05-25T09:14:45.568Z,44.44
2019-05-25T09:17:14.293Z,44.30
2019-05-25T09:19:42.922Z,44.67
2019-05-25T09:22:11.528Z,45.14
2019-05-25T09:24:40.024Z,48.29
2019-05-25T09:27:08.580Z,54.16
2019-05-25T09:29:37.248Z,55.11
2019-05-25T09:32:07.185Z,53.40
2019-05-25T09:34:35.818Z,54.24
2019-05-25T09:37:04.419Z,52.60
2019-05-25T09:39:33.046Z,49.32
2019-05-25T09:42:01.609Z,45.80
2019-05-25T09:44:30.135Z,45.03
2019-05-25T09:46:58.728Z,43.63
2019-05-25T09:49:27.343Z,44.06
2019-05-25T09:51:56.017Z,46.43
2019-05-25T09:54:24.590Z,52.48
2019-05-25T09:56:53.140Z,55.25
2019-05-25T09:59:21.812Z,61.17
2019-05-25T10:01:50.457Z,62.07
2019-05-25T10:04:19.038Z,60.23
2019-05-25T10:06:47.689Z,62.36
2019-05-25T10:09:16.396Z,57.96
2019-05-25T10:11:44.954Z,59.08
2019-05-25T10:14:13.554Z,56.54
2019-05-25T10:16:42.186Z,53.74
2019-05-25T10:19:10.678Z,54.07
2019-05-25T10:21:39.227Z,51.30
2019-05-25T10:24:07.852Z,52.22
2019-05-25T10:26:36.406Z,52.31
2019-05-25T10:29:05.074Z,54.58
2019-05-25T10:31:33.626Z,52.05
2019-05-25T10:34:02.306Z,50.16
2019-05-25T10:36:31.106Z,50.89
2019-05-25T10:38:59.658Z,48.28
2019-05-25T10:41:28.233Z,49.75
2019-05-25T10:43:56.965Z,49.59
2019-05-25T10:46:25.546Z,48.64
2019-05-25T10:48:54.063Z,48.09
2019-05-25T10:51:22.611Z,49.00
2019-05-25T10:53:52.232Z,47.15
2019-05-25T10:56:20.799Z,48.07
2019-05-25T10:58:49.465Z,46.60
2019-05-25T11:01:18.274Z,47.63
2019-05-25T11:03:46.841Z,48.31
2019-05-25T11:06:15.439Z,48.63
2019-05-25T11:08:43.942Z,48.39
2019-05-25T11:11:12.587Z,48.56
2019-05-25T11:13:41.221Z,48.87
2019-05-25T11:16:09.858Z,48.76
2019-05-25T11:18:38.487Z,49.15
2019-05-25T11:21:07.160Z,48.53
2019-05-25T11:23:35.721Z,48.57
2019-05-25T11:26:04.284Z,48.98
2019-05-25T11:28:32.950Z,49.00
2019-05-25T11:31:01.584Z,49.02
2019-05-25T11:33:30.149Z,48.72
2019-05-25T11:35:58.839Z,48.72
2019-05-25T11:38:27.389Z,48.73
2019-05-25T11:40:55.952Z,48.89
2019-05-25T11:43:24.545Z,49.83
2019-05-25T11:45:53.281Z,49.52
2019-05-25T11:48:21.913Z,49.29
2019-05-25T11:50:50.509Z,48.02
2019-05-25T11:53:19.138Z,47.58
2019-05-25T11:55:47.793Z,49.18
2019-05-25T11:58:16.386Z,49.11
2019-05-25T12:00:45.019Z,49.30
2019-05-25T12:03:13.644Z,48.65
2019-05-25T12:05:42.327Z,48.06
2019-05-25T12:08:10.969Z,46.58
2019-05-25T12:10:39.600Z,46.98
2019-05-25T12:13:08.276Z,46.44
2019-05-25T12:15:36.911Z,46.69
2019-05-25T12:18:05.653Z,46.78
2019-05-25T12:20:34.445Z,47.40
2019-05-25T12:23:03.679Z,47.13
2019-05-25T12:25:32.526Z,48.20
2019-05-25T12:28:01.074Z,48.11
2019-05-25T12:30:40.196Z,48.77
2019-05-25T12:33:00.113Z,49.39
2019-05-25T12:35:28.706Z,48.32
2019-05-25T12:37:57.262Z,49.25
2019-05-25T12:40:26.599Z,49.45
2019-05-25T12:42:55.220Z,48.33
2019-05-25T12:45:24.507Z,46.17
2019-05-25T12:47:54.226Z,46.41
2019-05-25T12:50:23.003Z,47.49
2019-05-25T12:52:51.634Z,47.87
2019-05-25T12:55:20.277Z,47.10
2019-05-25T12:57:51.382Z,46.70
2019-05-25T13:00:19.803Z,46.11
2019-05-25T13:02:48.402Z,44.23
2019-05-25T13:05:31.185Z,44.04
2019-05-25T13:07:47.458Z,44.14
2019-05-25T13:10:16.430Z,44.48
2019-05-25T13:12:45.019Z,42.90
2019-05-25T13:15:13.919Z,42.80
2019-05-25T13:17:42.641Z,43.49
2019-05-25T13:20:11.477Z,43.91
2019-05-25T13:22:40.092Z,44.97
2019-05-25T13:25:09.583Z,44.45
2019-05-25T13:27:38.201Z,44.24
2019-05-25T13:30:08.567Z,43.77
2019-05-25T13:32:37.095Z,44.48
2019-05-25T13:35:09.717Z,44.89
2019-05-25T13:37:38.350Z,45.15
2019-05-25T13:40:07.314Z,45.08
2019-05-25T13:42:35.964Z,44.80
2019-05-25T13:45:06.587Z,44.98
2019-05-25T13:47:35.253Z,45.22
2019-05-25T13:50:08.493Z,44.98
2019-05-25T13:52:37.139Z,44.65
2019-05-25T13:55:06.090Z,43.36
2019-05-25T13:57:34.655Z,42.18
2019-05-25T14:00:03.301Z,41.82
2019-05-25T14:02:32.077Z,41.46
2019-05-25T14:05:00.657Z,42.33
2019-05-25T14:07:29.280Z,42.26
2019-05-25T14:09:57.824Z,42.42
2019-05-25T14:12:26.427Z,43.00
2019-05-25T14:14:55.064Z,42.66
2019-05-25T14:17:23.719Z,43.21
2019-05-25T14:19:52.378Z,42.19
2019-05-25T14:22:20.968Z,42.53
2019-05-25T14:24:49.568Z,43.08
2019-05-25T14:27:18.218Z,42.93
2019-05-25T14:29:46.845Z,43.36
2019-05-25T14:32:15.471Z,42.41
2019-05-25T14:34:44.035Z,40.55
2019-05-25T14:37:12.630Z,40.41
2019-05-25T14:39:41.294Z,40.61
2019-05-25T14:42:09.935Z,40.68
2019-05-25T14:44:38.418Z,40.85
2019-05-25T14:47:07.047Z,40.83
2019-05-25T14:49:35.675Z,40.91
2019-05-25T14:52:04.463Z,41.34
2019-05-25T14:54:32.996Z,41.75
2019-05-25T14:57:01.675Z,41.54
2019-05-25T14:59:30.303Z,41.01
2019-05-25T15:02:02.455Z,40.35
2019-05-25T15:04:29.227Z,40.68
2019-05-25T15:06:58.709Z,40.18
2019-05-25T15:09:27.299Z,40.34
2019-05-25T15:11:55.932Z,40.83
2019-05-25T15:14:24.664Z,41.27
2019-05-25T15:16:53.459Z,41.44
2019-05-25T15:19:21.996Z,42.79
2019-05-25T15:21:50.599Z,42.99
2019-05-25T15:24:19.257Z,43.45
2019-05-25T15:26:47.892Z,43.25
2019-05-25T15:29:16.470Z,43.12
2019-05-25T15:31:45.223Z,43.66
2019-05-25T15:34:13.792Z,43.68
2019-05-25T15:36:42.280Z,44.13
2019-05-25T15:39:10.946Z,43.86
2019-05-25T15:41:39.577Z,44.42
2019-05-25T15:44:08.165Z,44.44
2019-05-25T15:46:36.742Z,45.08
2019-05-25T15:49:05.474Z,45.19
2019-05-25T15:51:34.141Z,45.30
2019-05-25T15:54:02.783Z,45.75
2019-05-25T15:56:31.351Z,46.20
2019-05-25T15:59:00.032Z,46.13
2019-05-25T16:01:28.708Z,45.71
2019-05-25T16:03:57.274Z,46.50
2019-05-25T16:06:25.972Z,46.94
2019-05-25T16:08:54.755Z,46.00
2019-05-25T16:11:23.394Z,45.28
2019-05-25T16:13:52.405Z,45.18
2019-05-25T16:16:29.629Z,45.33
2019-05-25T16:18:51.469Z,45.59
2019-05-25T16:21:19.953Z,45.57
2019-05-25T16:23:48.621Z,45.98
2019-05-25T16:26:17.173Z,46.02
2019-05-25T16:28:45.806Z,46.15
2019-05-25T16:31:14.335Z,46.38
2019-05-25T16:33:42.894Z,46.60
2019-05-25T16:36:11.537Z,46.58
2019-05-25T16:38:40.132Z,46.67
2019-05-25T16:41:08.698Z,47.23
2019-05-25T16:43:37.271Z,46.95
2019-05-25T16:46:05.936Z,46.33
2019-05-25T16:48:34.574Z,46.75
2019-05-25T16:51:03.278Z,46.77
2019-05-25T16:53:31.888Z,46.44
2019-05-25T16:56:00.456Z,46.79
2019-05-25T16:58:29.094Z,47.02
2019-05-25T17:00:57.777Z,47.50
2019-05-25T17:03:28.734Z,47.54
2019-05-25T17:05:56.765Z,47.87
2019-05-25T17:08:25.399Z,47.88
2019-05-25T17:10:53.962Z,47.89
2019-05-25T17:13:22.675Z,47.94
2019-05-25T17:15:51.234Z,48.29
2019-05-25T17:18:19.878Z,48.73
2019-05-25T17:20:48.551Z,48.83
2019-05-25T17:23:17.191Z,48.83
2019-05-25T17:25:45.757Z,49.39
2019-05-25T17:28:14.423Z,49.86
2019-05-25T17:30:45.073Z,50.29
2019-05-25T17:33:13.939Z,50.45
2019-05-25T17:35:42.915Z,50.94
2019-05-25T17:38:11.533Z,51.72
2019-05-25T17:40:40.196Z,52.20
2019-05-25T17:43:08.905Z,52.70
2019-05-25T17:45:37.540Z,53.24
2019-05-25T17:48:06.213Z,53.51
2019-05-25T17:50:34.832Z,54.02
2019-05-25T17:53:03.388Z,54.64
2019-05-25T17:55:32.031Z,55.22
2019-05-25T17:58:00.701Z,56.05
2019-05-25T18:00:44.673Z,56.60
2019-05-25T18:03:13.353Z,56.80
2019-05-25T18:05:41.993Z,57.45
2019-05-25T18:08:10.931Z,57.46
2019-05-25T18:10:51.908Z,58.03
2019-05-25T18:13:09.902Z,57.96
2019-05-25T18:15:38.521Z,58.82
2019-05-25T18:18:07.790Z,58.69
2019-05-25T18:20:36.428Z,59.21
2019-05-25T18:23:05.153Z,59.50
2019-05-25T18:25:33.845Z,59.86
2019-05-25T18:28:02.487Z,60.02
2019-05-25T18:30:31.147Z,60.18
2019-05-25T18:32:59.722Z,60.24
2019-05-25T18:35:28.320Z,60.26
2019-05-25T18:37:57.022Z,60.65
2019-05-25T18:40:25.691Z,60.70
2019-05-25T18:42:54.255Z,60.74
2019-05-25T18:45:22.889Z,60.89
2019-05-25T18:47:51.584Z,60.96
2019-05-25T18:50:20.621Z,61.45
2019-05-25T18:52:49.328Z,61.64
2019-05-25T18:55:18.436Z,61.73
2019-05-25T18:57:47.002Z,62.41
2019-05-25T19:00:17.432Z,62.70
2019-05-25T19:02:46.122Z,63.50
2019-05-25T19:05:15.156Z,63.77
2019-05-25T19:07:43.804Z,64.52
2019-05-25T19:10:12.782Z,65.08
2019-05-25T19:12:41.424Z,65.67
2019-05-25T19:15:10.552Z,66.16
2019-05-25T19:17:39.415Z,66.79
2019-05-25T19:20:08.995Z,67.03
2019-05-25T19:22:37.818Z,67.30
2019-05-25T19:25:09.737Z,67.53
2019-05-25T19:27:38.350Z,67.30
2019-05-25T19:30:11.397Z,67.41
2019-05-25T19:32:39.965Z,68.06
2019-05-25T19:35:10.607Z,68.59
2019-05-25T19:37:42.238Z,68.43
2019-05-25T19:40:09.864Z,68.03
2019-05-25T19:42:38.533Z,67.80
2019-05-25T19:45:09.077Z,68.03
2019-05-25T19:47:37.710Z,68.75
2019-05-25T19:50:07.277Z,68.33
2019-05-25T19:52:35.918Z,68.30
2019-05-25T19:55:06.522Z,68.03
2019-05-25T19:57:35.313Z,68.33
2019-05-25T20:00:07.179Z,68.09
2019-05-25T20:02:35.805Z,67.86
2019-05-25T20:05:16.498Z,67.78
2019-05-25T20:07:37.657Z,67.94
2019-05-25T20:10:08.070Z,67.74
2019-05-25T20:12:36.723Z,67.57
2019-05-25T20:15:09.184Z,67.43
2019-05-25T20:17:37.738Z,67.24
2019-05-25T20:20:07.438Z,67.54
2019-05-25T20:22:36.106Z,67.54
2019-05-25T20:25:06.525Z,67.39
2019-05-25T20:27:35.269Z,67.45
2019-05-25T20:30:05.733Z,67.28
2019-05-25T20:32:34.300Z,67.39
2019-05-25T20:35:02.901Z,67.60
2019-05-25T20:37:31.552Z,68.07
2019-05-25T20:40:00.189Z,68.29
2019-05-25T20:42:28.797Z,68.50
2019-05-25T20:44:57.295Z,69.00
2019-05-25T20:47:25.868Z,69.34
2019-05-25T20:49:54.542Z,69.98
2019-05-25T20:52:23.191Z,69.73
2019-05-25T20:54:51.857Z,70.48
2019-05-25T20:57:20.633Z,71.16
2019-05-25T20:59:49.232Z,71.33
2019-05-25T21:02:17.789Z,71.75
2019-05-25T21:04:46.455Z,71.78
2019-05-25T21:07:15.045Z,72.23
2019-05-25T21:09:43.618Z,72.75
2019-05-25T21:12:12.210Z,72.87
2019-05-25T21:14:40.845Z,73.26
2019-05-25T21:17:09.453Z,73.15
2019-05-25T21:19:38.049Z,72.67
2019-05-25T21:22:06.694Z,73.69
2019-05-25T21:24:35.317Z,74.95
2019-05-25T21:27:04.381Z,75.64
2019-05-25T21:29:32.948Z,76.84
2019-05-25T21:32:01.506Z,76.91
2019-05-25T21:34:30.104Z,76.31
2019-05-25T21:36:58.831Z,76.80
2019-05-25T21:39:27.459Z,76.69
2019-05-25T21:41:56.131Z,77.32
2019-05-25T21:44:24.915Z,77.42
2019-05-25T21:46:53.527Z,76.83
2019-05-25T21:49:22.236Z,76.56
2019-05-25T21:51:50.936Z,75.95
2019-05-25T21:54:19.656Z,76.34
2019-05-25T21:56:48.575Z,76.75
2019-05-25T21:59:17.254Z,77.06
2019-05-25T22:01:45.836Z,77.71
2019-05-25T22:04:14.519Z,77.07
2019-05-25T22:06:43.158Z,78.46
2019-05-25T22:09:11.814Z,78.72
2019-05-25T22:11:40.619Z,79.29
2019-05-25T22:14:09.323Z,79.26
2019-05-25T22:16:37.955Z,79.82
2019-05-25T22:19:06.620Z,79.62
2019-05-25T22:21:35.251Z,79.86
2019-05-25T22:24:03.885Z,79.80
2019-05-25T22:26:32.530Z,80.29
2019-05-25T22:29:01.164Z,80.47
2019-05-25T22:31:29.803Z,80.75
2019-05-25T22:33:59.414Z,81.58
2019-05-25T22:36:39.648Z,82.41
2019-05-25T22:38:58.626Z,83.12
2019-05-25T22:41:27.304Z,83.32
2019-05-25T22:43:55.929Z,83.28
2019-05-25T22:46:24.563Z,83.74
2019-05-25T22:48:53.293Z,84.18
2019-05-25T22:51:21.876Z,84.76
2019-05-25T22:53:50.512Z,85.02
2019-05-25T22:56:19.183Z,86.00
2019-05-25T22:58:47.815Z,88.08
2019-05-25T23:01:16.443Z,88.97
2019-05-25T23:03:44.978Z,89.80
2019-05-25T23:06:13.547Z,89.87
2019-05-25T23:08:42.186Z,90.62
2019-05-25T23:11:10.808Z,90.61
2019-05-25T23:13:39.367Z,90.77
2019-05-25T23:16:09.578Z,90.99
2019-05-25T23:18:38.221Z,91.12
2019-05-25T23:21:06.860Z,91.27
2019-05-25T23:23:35.466Z,91.54
2019-05-25T23:26:04.123Z,91.93
2019-05-25T23:28:32.685Z,92.27
2019-05-25T23:31:01.419Z,92.65
2019-05-25T23:33:30.067Z,92.69
2019-05-25T23:35:58.624Z,92.65
2019-05-25T23:38:27.162Z,93.21
2019-05-25T23:40:55.856Z,93.65
2019-05-25T23:43:24.497Z,93.89
2019-05-25T23:45:53.118Z,94.10
2019-05-25T23:48:21.603Z,94.81
2019-05-25T23:50:50.238Z,94.97
2019-05-25T23:53:18.930Z,95.05
2019-05-25T23:55:47.566Z,95.09
2019-05-25T23:58:16.074Z,95.43
